Knights Landing, California
Current Conditions -  °F | °C
As of 12:53 AM on Thursday 18 Dec 2014 (Local Time) from KSMF Reporting Station
Overcast Overcast  
Wind Chill: 51°   Ceiling: 5000
Heat Index: 51°   Visibility: 9mi
Dew Point: 48°   Wind: 5mph
Humidity: 89%   Direction: 100°E
Pressure: 30.1"   Gusts: NA
Location:  38.8°N, 121.72°W
Report Text: KSMF 180853Z 10004KT 9SM OVC050 11/09 A3010 RMK AO2 SLP191 60000 T01060089 50000 $
Loading
Personal Weather Stations






























Interactive Weather Map New forecast layout! Learn more

10-Day Weather Forecast

Advertisements
Track Severe Weather on mobile